Time;durP1;ratioP1;P1;durP2;ratioP2;P2;SDS_P1;SDS_P2;PMS_P1;PMS_P2;Temp;Humidity;BMP_temperature;BMP_pressure;BME280_temperature;BME280_humidity;BME280_pressure;Samples;Min_cycle;Max_cycle;Signal;HPM_P1;HPM_P2
2021/12/14 00:05:02;;;;;;;37.87;15.67;;;;;;;-2.47;100.00;101690.66;20970385;28;20219;-64
2021/12/14 00:15:11;;;;;;;34.50;14.90;;;;;;;-2.59;100.00;101696.63;20969977;28;20246;-69
2021/12/14 00:35:13;;;;;;;36.13;15.23;;;;;;;-2.64;100.00;101713.97;21071286;27;20564;-69
2021/12/14 00:55:18;;;;;;;29.80;14.23;;;;;;;-2.84;100.00;101728.53;21154652;27;20611;-70
2021/12/14 01:05:43;;;;;;;35.50;15.10;;;;;;;-2.79;100.00;101734.72;21140346;27;20305;-66
2021/12/14 01:15:53;;;;;;;30.43;14.60;;;;;;;-2.73;100.00;101719.09;21104666;27;20249;-65
2021/12/14 01:25:59;;;;;;;28.47;14.40;;;;;;;-2.73;100.00;101713.88;21137161;27;20230;-58
2021/12/14 01:36:10;;;;;;;32.80;16.70;;;;;;;-2.83;100.00;101701.56;21179788;27;20581;-61
2021/12/14 01:46:27;;;;;;;29.87;14.83;;;;;;;-2.94;100.00;101700.53;21221617;27;20282;-60
2021/12/14 01:56:39;;;;;;;34.57;16.20;;;;;;;-3.01;100.00;101690.88;21202758;27;20316;-63
2021/12/14 02:06:43;;;;;;;33.47;16.77;;;;;;;-3.08;100.00;101686.44;21144938;27;20240;-59
2021/12/14 02:16:52;;;;;;;32.73;15.60;;;;;;;-3.18;100.00;101692.38;21144596;27;20729;-66
2021/12/14 02:26:56;;;;;;;27.03;14.47;;;;;;;-3.18;100.00;101697.63;21127650;27;20665;-62
2021/12/14 02:37:00;;;;;;;30.17;16.03;;;;;;;-3.10;100.00;101686.41;21126773;27;20317;-70
2021/12/14 03:16:53;;;;;;;30.63;16.07;;;;;;;-3.24;100.00;101661.84;21025145;27;20633;-69
2021/12/14 03:26:57;;;;;;;37.17;18.23;;;;;;;-3.32;100.00;101664.38;20890226;28;20228;-69
2021/12/14 04:06:50;;;;;;;35.70;19.20;;;;;;;-3.44;100.00;101640.72;21100331;27;1343221;-58
2021/12/14 04:16:54;;;;;;;31.13;17.40;;;;;;;-3.45;100.00;101649.38;21138595;28;20518;-59
2021/12/14 04:26:59;;;;;;;30.80;17.23;;;;;;;-3.37;100.00;101650.34;21139167;28;20730;-58
2021/12/14 04:37:06;;;;;;;32.80;16.57;;;;;;;-3.38;100.00;101619.91;21138132;28;20671;-59
2021/12/14 04:57:18;;;;;;;30.13;17.47;;;;;;;-3.18;100.00;101650.63;21058029;27;20567;-67
2021/12/14 05:17:27;;;;;;;29.73;16.67;;;;;;;-2.97;100.00;101641.31;21163005;27;20387;-66
2021/12/14 05:27:36;;;;;;;25.27;15.37;;;;;;;-2.91;100.00;101636.19;21114732;27;20240;-68
2021/12/14 05:47:48;;;;;;;24.97;15.30;;;;;;;-2.82;100.00;101643.25;21054060;27;20575;-66
2021/12/14 05:58:16;;;;;;;38.20;18.97;;;;;;;-2.63;100.00;101626.00;21082726;27;20246;-66
2021/12/14 06:08:24;;;;;;;26.57;15.00;;;;;;;-2.50;100.00;101648.78;21010644;28;20225;-69
2021/12/14 06:18:31;;;;;;;23.07;14.40;;;;;;;-2.38;100.00;101628.00;21000206;28;20219;-64
2021/12/14 06:48:55;;;;;;;58.97;24.73;;;;;;;-2.38;100.00;101601.00;21055871;27;20629;-58
2021/12/14 06:59:05;;;;;;;60.00;25.77;;;;;;;-2.32;100.00;101580.16;21045003;28;20245;-59
2021/12/14 07:09:33;;;;;;;46.27;26.27;;;;;;;-2.13;100.00;101589.88;21049497;28;20568;-67
2021/12/14 07:19:53;;;;;;;25.60;16.13;;;;;;;-1.62;100.00;101581.50;21038246;28;20300;-70
2021/12/14 07:30:14;;;;;;;29.20;16.20;;;;;;;-1.31;100.00;101581.66;21053235;28;20699;-69
2021/12/14 07:40:18;;;;;;;26.87;15.33;;;;;;;-1.02;100.00;101594.88;21052387;28;20619;-67
2021/12/14 07:50:37;;;;;;;25.63;16.67;;;;;;;-0.85;100.00;101591.44;21051049;28;20271;-70
2021/12/14 08:00:42;;;;;;;28.40;16.73;;;;;;;-0.78;100.00;101590.56;20996726;28;20311;-69
2021/12/14 08:11:47;;;;;;;30.60;17.60;;;;;;;-0.65;100.00;101601.97;20994589;28;20606;-70
2021/12/14 08:21:50;;;;;;;33.40;19.70;;;;;;;-0.53;100.00;101596.75;20993479;28;20658;-70
2021/12/14 08:31:58;;;;;;;31.37;17.70;;;;;;;-0.45;100.00;101604.59;20992984;28;20238;-67
2021/12/14 08:42:18;;;;;;;32.30;18.10;;;;;;;0.03;100.00;101609.00;20992005;28;20236;-69
2021/12/14 08:52:25;;;;;;;29.07;16.37;;;;;;;0.50;100.00;101610.66;20992276;28;20227;-66
2021/12/14 09:02:31;;;;;;;28.43;16.73;;;;;;;0.94;100.00;101593.03;20989647;28;20228;-64
2021/12/14 09:12:40;;;;;;;28.03;17.40;;;;;;;1.27;100.00;101585.81;20990886;28;20223;-66
2021/12/14 09:22:48;;;;;;;29.37;17.70;;;;;;;1.66;100.00;101572.41;20989808;28;20242;-69
2021/12/14 09:32:51;;;;;;;33.13;20.10;;;;;;;1.90;100.00;101552.03;20989423;28;20267;-60
2021/12/14 09:42:55;;;;;;;30.07;18.37;;;;;;;2.34;100.00;101549.81;20988230;28;20252;-60
2021/12/14 09:53:00;;;;;;;28.93;17.90;;;;;;;2.71;100.00;101538.84;20987772;28;20738;-64
2021/12/14 10:03:07;;;;;;;32.50;19.73;;;;;;;2.92;100.00;101538.56;20987190;28;20238;-67
2021/12/14 10:13:10;;;;;;;33.17;21.00;;;;;;;3.11;100.00;101541.84;20986405;28;20227;-64
2021/12/14 10:23:15;;;;;;;33.13;21.13;;;;;;;3.13;100.00;101538.28;20986100;28;20226;-61
2021/12/14 10:33:18;;;;;;;34.37;21.33;;;;;;;2.99;100.00;101527.06;20985765;28;20710;-60
2021/12/14 10:43:23;;;;;;;35.30;22.33;;;;;;;2.77;100.00;101505.41;20984958;28;20736;-71
2021/12/14 10:53:26;;;;;;;45.13;29.23;;;;;;;2.57;100.00;101493.34;20983525;28;20676;-65
2021/12/14 11:03:35;;;;;;;45.77;27.43;;;;;;;2.66;100.00;101491.47;20983530;28;20240;-69
2021/12/14 11:13:55;;;;;;;41.83;24.90;;;;;;;2.77;100.00;101496.63;20984010;28;20219;-70
2021/12/14 11:23:59;;;;;;;44.13;27.03;;;;;;;2.83;100.00;101488.63;21019740;28;20222;-61
2021/12/14 11:34:11;;;;;;;37.90;24.50;;;;;;;3.04;100.00;101480.38;20995143;28;20240;-61
2021/12/14 11:44:17;;;;;;;36.90;22.50;;;;;;;3.20;100.00;101489.81;20980518;28;20230;-64
2021/12/14 11:54:22;;;;;;;41.73;27.23;;;;;;;3.23;100.00;101475.72;20997881;28;20223;-68
2021/12/14 12:04:34;;;;;;;46.73;27.37;;;;;;;3.30;100.00;101455.38;20996035;28;20719;-71
2021/12/14 12:14:43;;;;;;;39.10;26.17;;;;;;;3.22;100.00;101459.03;20995287;28;20233;-71
2021/12/14 12:24:50;;;;;;;45.17;28.13;;;;;;;3.08;100.00;101465.41;20995239;28;20305;-71
2021/12/14 12:34:54;;;;;;;47.47;29.07;;;;;;;2.91;100.00;101457.72;20994706;28;20607;-70
2021/12/14 12:44:57;;;;;;;49.40;30.00;;;;;;;2.62;100.00;101444.09;20993445;28;20777;-71
2021/12/14 12:55:02;;;;;;;52.03;31.80;;;;;;;2.47;100.00;101440.78;20992884;28;20241;-71
2021/12/14 13:05:30;;;;;;;59.63;35.50;;;;;;;2.23;100.00;101432.31;20990659;28;20312;-69
2021/12/14 13:15:47;;;;;;;48.43;29.33;;;;;;;2.20;100.00;101427.09;21023173;28;20233;-69
2021/12/14 13:25:51;;;;;;;51.97;31.30;;;;;;;2.06;100.00;101443.03;20990187;28;20315;-69
2021/12/14 13:35:54;;;;;;;64.43;33.73;;;;;;;1.78;100.00;101427.56;20989602;28;20220;-71
2021/12/14 13:46:01;;;;;;;58.60;33.17;;;;;;;1.60;100.00;101427.75;20987499;28;20231;-70
2021/12/14 13:56:08;;;;;;;65.27;34.27;;;;;;;1.44;100.00;101450.72;20903318;28;20308;-60
2021/12/14 14:06:14;;;;;;;59.33;32.40;;;;;;;1.35;100.00;101426.22;20904490;28;20225;-63
2021/12/14 14:16:18;;;;;;;62.60;33.07;;;;;;;1.32;100.00;101428.91;20903990;28;20229;-61
2021/12/14 14:26:36;;;;;;;66.60;33.43;;;;;;;1.32;100.00;101426.28;20902131;28;20241;-62
2021/12/14 14:36:43;;;;;;;68.87;34.47;;;;;;;1.23;100.00;101434.22;20903131;28;20223;-59
2021/12/14 14:47:03;;;;;;;65.83;34.10;;;;;;;1.16;100.00;101424.66;20885245;28;20281;-61
2021/12/14 14:57:13;;;;;;;69.60;32.80;;;;;;;1.16;100.00;101424.66;20899784;28;20233;-59
2021/12/14 15:07:16;;;;;;;76.90;34.60;;;;;;;1.11;100.00;101416.78;20912223;28;20596;-61
2021/12/14 15:17:25;;;;;;;71.73;31.97;;;;;;;1.11;100.00;101426.44;20917391;28;20220;-59
2021/12/14 15:27:36;;;;;;;73.93;36.27;;;;;;;1.01;100.00;101431.75;20917042;28;20573;-59
2021/12/14 15:37:56;;;;;;;76.97;34.50;;;;;;;1.00;100.00;101416.00;20915886;28;20230;-62
2021/12/14 15:48:04;;;;;;;73.13;34.87;;;;;;;0.96;100.00;101428.31;20913813;28;20235;-63
2021/12/14 15:58:20;;;;;;;74.33;33.60;;;;;;;0.98;100.00;101413.38;20912290;28;20243;-61
2021/12/14 16:08:29;;;;;;;75.87;35.47;;;;;;;0.96;100.00;101409.06;20912254;28;20238;-60
2021/12/14 16:18:33;;;;;;;69.37;33.20;;;;;;;1.01;100.00;101397.59;20894583;28;20227;-59
2021/12/14 16:28:44;;;;;;;62.50;30.60;;;;;;;1.07;100.00;101396.69;20877433;28;20266;-61
2021/12/14 16:39:08;;;;;;;71.60;32.37;;;;;;;1.13;100.00;101403.63;20849504;28;20248;-66
2021/12/14 16:49:18;;;;;;;66.17;30.53;;;;;;;1.19;100.00;101419.38;20930279;28;20850;-64
2021/12/14 16:59:30;;;;;;;65.37;30.73;;;;;;;1.24;100.00;101422.81;20928095;28;20230;-70
2021/12/14 17:09:34;;;;;;;57.87;29.83;;;;;;;1.28;100.00;101414.91;20963151;28;20226;-68
2021/12/14 17:19:47;;;;;;;64.20;30.83;;;;;;;1.38;100.00;101428.84;20938382;28;20357;-61
2021/12/14 17:29:54;;;;;;;66.73;32.00;;;;;;;1.40;100.00;101413.91;20931417;28;20299;-73
2021/12/14 17:40:08;;;;;;;61.80;28.73;;;;;;;1.46;100.00;101413.84;20930512;28;20311;-73
2021/12/14 17:50:13;;;;;;;57.27;28.13;;;;;;;1.56;100.00;101419.91;20883163;28;20216;-75
2021/12/14 18:00:25;;;;;;;58.27;29.47;;;;;;;1.60;100.00;101416.34;20895845;28;20320;-76
2021/12/14 18:10:33;;;;;;;56.67;28.10;;;;;;;1.62;100.00;101415.47;20903486;28;20223;-73
2021/12/14 18:20:37;;;;;;;60.73;29.97;;;;;;;1.64;100.00;101408.41;20903179;28;20247;-67
2021/12/14 18:30:42;;;;;;;50.17;27.70;;;;;;;1.69;100.00;101411.00;20872651;28;20244;-72
2021/12/14 18:41:06;;;;;;;47.53;25.23;;;;;;;1.75;100.00;101405.69;20819118;28;20242;-64
2021/12/14 18:51:11;;;;;;;52.37;26.97;;;;;;;1.85;100.00;101422.22;20915235;28;20236;-59
2021/12/14 19:21:16;;;;;;;65.00;31.23;;;;;;;1.91;100.00;101419.53;21155083;27;20578;-60
2021/12/14 19:31:25;;;;;;;61.87;30.57;;;;;;;1.94;100.00;101422.13;21281160;27;20248;-63
2021/12/14 20:11:23;;;;;;;64.63;30.37;;;;;;;2.07;100.00;101455.31;21122251;27;20576;-60
2021/12/14 20:21:30;;;;;;;61.73;30.50;;;;;;;2.16;100.00;101439.44;21055629;28;20227;-59
2021/12/14 20:31:41;;;;;;;60.10;31.17;;;;;;;2.21;100.00;101448.13;21029388;28;20232;-59
2021/12/14 20:42:12;;;;;;;59.83;31.07;;;;;;;2.17;100.00;101441.19;21014189;28;20225;-61
2021/12/14 20:52:26;;;;;;;58.37;30.73;;;;;;;2.16;100.00;101455.25;21021326;27;20561;-58
2021/12/14 21:02:30;;;;;;;63.73;32.30;;;;;;;2.22;100.00;101436.72;20999042;28;20710;-63
2021/12/14 21:12:34;;;;;;;65.20;33.07;;;;;;;2.24;100.00;101432.31;20994911;28;20231;-70
2021/12/14 21:22:43;;;;;;;60.13;30.07;;;;;;;2.25;100.00;101444.59;20896167;28;20229;-74
2021/12/14 21:32:56;;;;;;;52.67;29.43;;;;;;;2.34;100.00;101441.81;20912363;28;20220;-73
2021/12/14 21:43:18;;;;;;;68.47;33.20;;;;;;;2.36;100.00;101436.53;20927834;28;20793;-71
2021/12/14 21:53:21;;;;;;;69.37;34.33;;;;;;;2.45;100.00;101452.22;20933624;28;20580;-58
2021/12/14 22:03:25;;;;;;;67.53;33.50;;;;;;;2.44;100.00;101440.81;20922245;28;20766;-61
2021/12/14 22:13:34;;;;;;;57.63;30.10;;;;;;;2.45;100.00;101441.69;20908862;28;20244;-62
2021/12/14 22:23:39;;;;;;;57.33;31.23;;;;;;;2.53;100.00;101446.00;20935880;28;20405;-59
2021/12/14 22:33:45;;;;;;;62.23;33.53;;;;;;;2.66;100.00;101453.69;20908590;28;20628;-61
2021/12/14 22:44:10;;;;;;;61.13;33.60;;;;;;;2.70;100.00;101458.03;20916148;28;20662;-68
2021/12/14 22:54:14;;;;;;;59.63;33.13;;;;;;;2.75;100.00;101456.22;20829687;28;20499;-67
2021/12/14 23:04:20;;;;;;;61.10;33.47;;;;;;;2.72;100.00;101449.22;20866655;28;20229;-72
2021/12/14 23:14:30;;;;;;;64.43;36.03;;;;;;;2.66;100.00;101448.44;20952010;28;20308;-67
2021/12/14 23:24:34;;;;;;;84.93;40.97;;;;;;;2.52;100.00;101444.25;20985877;28;20232;-63
2021/12/14 23:34:38;;;;;;;96.33;45.23;;;;;;;2.37;100.00;101438.28;20974146;28;20312;-68
2021/12/14 23:44:43;;;;;;;94.33;45.07;;;;;;;2.23;100.00;101451.63;20900115;28;20241;-60
